Terminal Aerodrome Forecast
Issued by NWS

Home | Current Version | Previous Version | Text Only | Print | Product List | Glossary On
Versions: 1 2 3 4 5 6 7 8 9 10 11 12 13 14 15 16 17 18 19
000
FTAK31 PANC 221740
TAFAEN
TAF
PAEN 221740Z 2218/2318 02006KT 3SM -SN OVC025
      TEMPO 2218/2221 2SM -SN BKN010
     FM222200 22012KT P6SM VCSH FEW015 BKN025
     FM231200 VRB03KT 2SM BR BKN006=

USA.gov is the U.S. government's official web portal to all federal, state and local government web resources and services.